createdAt,value
2023-06-10T00:00:30.185Z,26.05
2023-06-10T00:01:31.141Z,26.03
2023-06-10T00:02:30.290Z,26.04
2023-06-10T00:03:31.289Z,26.04
2023-06-10T00:04:31.301Z,26.04
2023-06-10T00:05:31.306Z,26.01
2023-06-10T00:06:30.271Z,25.97
2023-06-10T00:07:31.315Z,26.00
2023-06-10T00:08:30.370Z,25.99
2023-06-10T00:09:31.410Z,25.96
2023-06-10T00:10:31.438Z,25.97
2023-06-10T00:11:31.473Z,25.99
2023-06-10T00:12:31.576Z,26.01
2023-06-10T00:13:31.604Z,26.01
2023-06-10T00:14:31.576Z,26.03
2023-06-10T00:15:31.648Z,26.00
2023-06-10T00:16:30.656Z,26.03
2023-06-10T00:17:31.738Z,25.99
2023-06-10T00:18:31.711Z,26.00
2023-06-10T00:19:31.788Z,26.00
2023-06-10T00:20:31.763Z,25.97
2023-06-10T00:21:38.574Z,25.96
2023-06-10T00:22:31.749Z,25.94
2023-06-10T00:23:31.775Z,25.97
2023-06-10T00:24:30.773Z,25.99
2023-06-10T00:25:31.775Z,25.99
2023-06-10T00:26:31.804Z,26.01
2023-06-10T00:27:31.813Z,26.03
2023-06-10T00:28:31.706Z,26.01
2023-06-10T00:29:31.706Z,26.01
2023-06-10T00:30:31.747Z,26.01
2023-06-10T00:31:31.757Z,26.00
2023-06-10T00:32:31.698Z,25.99
2023-06-10T00:33:31.760Z,25.99
2023-06-10T00:34:30.636Z,25.97
2023-06-10T00:35:31.644Z,26.00
2023-06-10T00:36:30.617Z,25.97
2023-06-10T00:37:31.655Z,26.00
2023-06-10T00:38:30.658Z,25.99
2023-06-10T00:39:31.690Z,25.99
2023-06-10T00:40:31.713Z,26.01
2023-06-10T00:41:31.746Z,26.00
2023-06-10T00:42:31.775Z,25.99
2023-06-10T00:43:31.754Z,26.00
2023-06-10T00:44:31.804Z,25.99
2023-06-10T00:45:31.871Z,26.00
2023-06-10T00:46:31.879Z,26.00
2023-06-10T00:47:31.114Z,26.00
2023-06-10T00:48:32.029Z,25.99
2023-06-10T00:49:32.052Z,25.99
2023-06-10T00:50:32.090Z,25.97
2023-06-10T00:51:32.089Z,25.97
2023-06-10T00:52:32.105Z,25.99
2023-06-10T00:53:31.297Z,25.97
2023-06-10T00:54:32.216Z,25.96
2023-06-10T00:55:32.221Z,25.99
2023-06-10T00:56:32.271Z,25.97
2023-06-10T00:57:32.266Z,25.96
2023-06-10T00:58:32.342Z,25.97
2023-06-10T00:59:32.340Z,25.96
2023-06-10T01:00:32.449Z,25.96
2023-06-10T01:01:31.519Z,25.96
2023-06-10T01:02:32.459Z,25.97
2023-06-10T01:03:31.483Z,25.94
2023-06-10T01:04:32.463Z,25.94
2023-06-10T01:05:31.591Z,25.96
2023-06-10T01:06:33.176Z,25.94
2023-06-10T01:07:31.609Z,25.94
2023-06-10T01:08:32.663Z,25.93
2023-06-10T01:09:31.723Z,25.94
2023-06-10T01:10:32.727Z,25.93
2023-06-10T01:11:31.794Z,25.94
2023-06-10T01:12:32.820Z,25.94
2023-06-10T01:13:32.867Z,25.96
2023-06-10T01:14:32.493Z,25.94
2023-06-10T01:15:32.920Z,25.92
2023-06-10T01:16:32.971Z,25.93
2023-06-10T01:17:33.112Z,25.92
2023-06-10T01:18:32.979Z,25.92
2023-06-10T01:19:33.089Z,25.93
2023-06-10T01:20:33.220Z,25.92
2023-06-10T01:21:35.138Z,25.93
2023-06-10T01:22:33.137Z,25.93
2023-06-10T01:23:33.200Z,25.90
2023-06-10T01:24:32.196Z,25.92
2023-06-10T01:25:33.106Z,25.90
2023-06-10T01:26:32.075Z,25.93
2023-06-10T01:27:32.055Z,25.90
2023-06-10T01:28:32.131Z,25.90
2023-06-10T01:29:33.119Z,25.89
2023-06-10T01:30:33.084Z,25.89
2023-06-10T01:31:33.116Z,25.92
2023-06-10T01:32:32.061Z,25.90
2023-06-10T01:33:33.042Z,25.89
2023-06-10T01:34:32.106Z,25.96
2023-06-10T01:35:33.025Z,25.89
2023-06-10T01:36:33.071Z,25.87
2023-06-10T01:37:33.019Z,25.87
2023-06-10T01:38:33.059Z,25.86
2023-06-10T01:39:33.023Z,25.90
2023-06-10T01:40:31.996Z,25.86
2023-06-10T01:41:32.963Z,25.90
2023-06-10T01:42:32.945Z,25.89
2023-06-10T01:43:31.981Z,25.92
2023-06-10T01:44:31.934Z,25.89
2023-06-10T01:45:32.949Z,25.87
2023-06-10T01:46:33.038Z,25.87
2023-06-10T01:47:33.109Z,25.90
2023-06-10T01:48:31.913Z,25.87
2023-06-10T01:49:32.901Z,25.87
2023-06-10T01:50:32.965Z,25.86
2023-06-10T01:51:32.985Z,25.86
2023-06-10T01:52:32.981Z,25.85
2023-06-10T01:53:33.071Z,25.89
2023-06-10T01:54:33.047Z,25.85
2023-06-10T01:55:33.119Z,25.85
2023-06-10T01:56:32.150Z,25.85
2023-06-10T01:57:32.222Z,25.85
2023-06-10T01:58:33.286Z,25.87
2023-06-10T01:59:33.316Z,25.86
2023-06-10T02:00:33.387Z,25.87
2023-06-10T02:01:33.485Z,25.85
2023-06-10T02:02:33.029Z,25.83
2023-06-10T02:03:33.563Z,25.85
2023-06-10T02:04:33.542Z,25.86
2023-06-10T02:05:33.578Z,25.83
2023-06-10T02:06:33.576Z,25.87
2023-06-10T02:07:33.619Z,25.87
2023-06-10T02:08:34.501Z,25.85
2023-06-10T02:09:33.696Z,25.83
2023-06-10T02:10:33.747Z,25.85
2023-06-10T02:11:33.817Z,25.82
2023-06-10T02:12:33.849Z,25.85
2023-06-10T02:13:33.934Z,25.83
2023-06-10T02:14:33.976Z,25.82
2023-06-10T02:15:34.000Z,25.80
2023-06-10T02:16:33.145Z,25.83
2023-06-10T02:17:33.094Z,25.83
2023-06-10T02:18:34.134Z,25.83
2023-06-10T02:19:33.171Z,25.85
2023-06-10T02:20:34.206Z,25.82
2023-06-10T02:21:34.248Z,25.80
2023-06-10T02:22:34.340Z,25.82
2023-06-10T02:23:34.384Z,25.83
2023-06-10T02:24:34.412Z,25.82
2023-06-10T02:25:34.485Z,25.82
2023-06-10T02:26:34.529Z,25.80
2023-06-10T02:27:34.655Z,25.80
2023-06-10T02:28:33.654Z,25.80
2023-06-10T02:29:34.673Z,25.82
2023-06-10T02:30:34.693Z,25.80
2023-06-10T02:31:34.736Z,25.82
2023-06-10T02:32:34.797Z,25.80
2023-06-10T02:33:33.856Z,25.80
2023-06-10T02:34:34.930Z,25.79
2023-06-10T02:35:34.951Z,25.79
2023-06-10T02:36:35.007Z,25.80
2023-06-10T02:37:35.073Z,25.80
2023-06-10T02:38:35.147Z,25.80
2023-06-10T02:39:35.193Z,25.79
2023-06-10T02:40:35.206Z,25.79
2023-06-10T02:41:35.195Z,25.79
2023-06-10T02:42:35.252Z,25.79
2023-06-10T02:43:34.349Z,25.79
2023-06-10T02:44:35.367Z,25.79
2023-06-10T02:45:35.487Z,25.80
2023-06-10T02:46:34.520Z,25.77
2023-06-10T02:47:35.645Z,25.79
2023-06-10T02:48:35.620Z,25.79
2023-06-10T02:49:35.667Z,25.77
2023-06-10T02:50:34.718Z,25.79
2023-06-10T02:51:35.750Z,25.79
2023-06-10T02:52:35.846Z,25.76
2023-06-10T02:53:35.885Z,25.80
2023-06-10T02:54:35.951Z,25.77
2023-06-10T02:55:35.954Z,25.73
2023-06-10T02:56:36.007Z,25.77
2023-06-10T02:57:36.114Z,25.76
2023-06-10T02:58:35.193Z,25.77
2023-06-10T02:59:36.169Z,25.73
2023-06-10T03:00:36.228Z,25.75
2023-06-10T03:01:36.576Z,25.75
2023-06-10T03:02:36.444Z,25.76
2023-06-10T03:03:36.452Z,25.76
2023-06-10T03:04:36.447Z,25.76
2023-06-10T03:05:36.509Z,25.75
2023-06-10T03:06:36.561Z,25.76
2023-06-10T03:07:36.579Z,25.77
2023-06-10T03:08:36.647Z,25.76
2023-06-10T03:09:36.706Z,25.73
2023-06-10T03:10:36.751Z,25.75
2023-06-10T03:11:36.785Z,25.73
2023-06-10T03:12:37.574Z,25.75
2023-06-10T03:13:36.951Z,25.75
2023-06-10T03:14:37.000Z,25.76
2023-06-10T03:15:37.137Z,25.72
2023-06-10T03:16:36.131Z,25.76
2023-06-10T03:17:37.148Z,25.76
2023-06-10T03:18:36.264Z,25.72
2023-06-10T03:19:37.281Z,25.73
2023-06-10T03:20:37.306Z,25.70
2023-06-10T03:21:36.401Z,25.70
2023-06-10T03:22:36.410Z,25.73
2023-06-10T03:23:37.554Z,25.73
2023-06-10T03:24:37.504Z,25.73
2023-06-10T03:25:37.601Z,25.73
2023-06-10T03:26:37.644Z,25.75
2023-06-10T03:27:37.733Z,25.75
2023-06-10T03:28:37.865Z,25.70
2023-06-10T03:29:37.832Z,25.70
2023-06-10T03:30:37.902Z,25.72
2023-06-10T03:31:37.964Z,25.73
2023-06-10T03:32:37.031Z,25.72
2023-06-10T03:33:38.019Z,25.73
2023-06-10T03:34:37.081Z,25.72
2023-06-10T03:35:38.129Z,25.75
2023-06-10T03:36:38.170Z,25.72
2023-06-10T03:37:38.242Z,25.73
2023-06-10T03:38:37.297Z,25.72
2023-06-10T03:39:38.356Z,25.72
2023-06-10T03:40:38.380Z,25.75
2023-06-10T03:41:38.457Z,25.69
2023-06-10T03:42:38.568Z,25.72
2023-06-10T03:43:38.608Z,25.69
2023-06-10T03:44:37.627Z,25.72
2023-06-10T03:45:37.705Z,25.70
2023-06-10T03:46:38.772Z,25.70
2023-06-10T03:47:37.831Z,25.70
2023-06-10T03:48:38.873Z,25.72
2023-06-10T03:49:39.028Z,25.72
2023-06-10T03:50:39.030Z,25.72
2023-06-10T03:51:39.098Z,25.70
2023-06-10T03:52:39.142Z,25.69
2023-06-10T03:53:39.180Z,25.68
2023-06-10T03:54:39.263Z,25.72
2023-06-10T03:55:39.305Z,25.70
2023-06-10T03:56:39.366Z,25.69
2023-06-10T03:57:39.438Z,25.70
2023-06-10T03:58:39.468Z,25.72
2023-06-10T03:59:39.481Z,25.69
2023-06-10T04:00:39.634Z,25.66
2023-06-10T04:01:39.647Z,25.69
2023-06-10T04:02:39.776Z,25.70
2023-06-10T04:03:39.796Z,25.66
2023-06-10T04:04:39.831Z,25.66
2023-06-10T04:05:38.890Z,25.69
2023-06-10T04:06:39.938Z,25.70
2023-06-10T04:07:40.040Z,25.66
2023-06-10T04:08:40.034Z,25.69
2023-06-10T04:09:40.202Z,25.69
2023-06-10T04:10:40.194Z,25.68
2023-06-10T04:11:39.267Z,25.68
2023-06-10T04:12:39.246Z,25.70
2023-06-10T04:13:39.292Z,25.70
2023-06-10T04:14:39.329Z,25.68
2023-06-10T04:15:40.402Z,25.68
2023-06-10T04:16:39.589Z,25.69
2023-06-10T04:17:39.620Z,25.69
2023-06-10T04:18:40.627Z,25.68
2023-06-10T04:19:40.736Z,25.68
2023-06-10T04:20:40.780Z,25.65
2023-06-10T04:21:40.869Z,25.66
2023-06-10T04:22:40.870Z,25.66
2023-06-10T04:23:41.029Z,25.66
2023-06-10T04:24:40.984Z,25.66
2023-06-10T04:25:41.073Z,25.66
2023-06-10T04:26:41.090Z,25.65
2023-06-10T04:27:40.090Z,25.66
2023-06-10T04:28:41.185Z,25.69
2023-06-10T04:29:40.245Z,25.66
2023-06-10T04:30:40.293Z,25.69
2023-06-10T04:31:41.413Z,25.69
2023-06-10T04:32:41.443Z,25.68
2023-06-10T04:33:41.496Z,25.66
2023-06-10T04:34:41.586Z,25.66
2023-06-10T04:35:41.641Z,25.70
2023-06-10T04:36:41.661Z,25.68
2023-06-10T04:37:41.686Z,25.68
2023-06-10T04:38:40.809Z,25.68
2023-06-10T04:39:41.842Z,25.69
2023-06-10T04:40:41.948Z,25.66
2023-06-10T04:41:42.011Z,25.69
2023-06-10T04:42:42.026Z,25.68
2023-06-10T04:43:42.071Z,25.68
2023-06-10T04:44:41.130Z,25.68
2023-06-10T04:45:42.170Z,25.69
2023-06-10T04:46:42.280Z,25.70
2023-06-10T04:47:42.321Z,25.68
2023-06-10T04:48:41.375Z,25.69
2023-06-10T04:49:41.411Z,25.69
2023-06-10T04:50:42.508Z,25.68
2023-06-10T04:51:42.609Z,25.69
2023-06-10T04:52:41.615Z,25.66
2023-06-10T04:53:42.676Z,25.68
2023-06-10T04:54:42.718Z,25.69
2023-06-10T04:55:42.815Z,25.70
2023-06-10T04:56:42.846Z,25.69
2023-06-10T04:57:42.984Z,25.70
2023-06-10T04:58:42.991Z,25.70
2023-06-10T04:59:42.019Z,25.72
2023-06-10T05:00:43.182Z,25.72
2023-06-10T05:01:43.183Z,25.69
2023-06-10T05:02:43.304Z,25.69
2023-06-10T05:03:42.339Z,25.68
2023-06-10T05:04:42.405Z,25.69
2023-06-10T05:05:43.421Z,25.69
2023-06-10T05:06:43.602Z,25.70
2023-06-10T05:07:43.578Z,25.69
2023-06-10T05:08:42.643Z,25.70
2023-06-10T05:09:43.650Z,25.72
2023-06-10T05:10:43.762Z,25.70
2023-06-10T05:11:43.811Z,25.70
2023-06-10T05:12:43.849Z,25.72
2023-06-10T05:13:42.925Z,25.72
2023-06-10T05:14:43.918Z,25.70
2023-06-10T05:15:43.994Z,25.70
2023-06-10T05:16:44.052Z,25.69
2023-06-10T05:17:44.215Z,25.72
2023-06-10T05:18:44.167Z,25.69
2023-06-10T05:19:44.237Z,25.72
2023-06-10T05:20:44.348Z,25.72
2023-06-10T05:21:44.364Z,25.76
2023-06-10T05:22:44.442Z,25.72
2023-06-10T05:23:43.495Z,25.75
2023-06-10T05:24:43.522Z,25.75
2023-06-10T05:25:44.608Z,25.76
2023-06-10T05:26:44.756Z,25.76
2023-06-10T05:27:44.695Z,25.76
2023-06-10T05:28:44.768Z,25.79
2023-06-10T05:29:44.832Z,25.76
2023-06-10T05:30:44.894Z,25.75
2023-06-10T05:31:43.944Z,25.75
2023-06-10T05:32:44.062Z,25.77
2023-06-10T05:33:45.059Z,25.79
2023-06-10T05:34:44.167Z,25.79
2023-06-10T05:35:45.245Z,25.79
2023-06-10T05:36:44.227Z,25.79
2023-06-10T05:37:44.270Z,25.79
2023-06-10T05:38:45.410Z,25.80
2023-06-10T05:39:45.400Z,25.80
2023-06-10T05:40:45.537Z,25.80
2023-06-10T05:41:44.520Z,25.82
2023-06-10T05:42:45.606Z,25.82
2023-06-10T05:43:44.609Z,25.83
2023-06-10T05:44:45.686Z,25.83
2023-06-10T05:45:45.789Z,25.87
2023-06-10T05:46:45.749Z,25.87
2023-06-10T05:47:45.841Z,25.85
2023-06-10T05:48:44.851Z,25.86
2023-06-10T05:49:45.891Z,25.85
2023-06-10T05:50:46.001Z,25.83
2023-06-10T05:51:46.010Z,25.86
2023-06-10T05:52:46.085Z,25.86
2023-06-10T05:53:46.181Z,25.89
2023-06-10T05:54:46.193Z,25.87
2023-06-10T05:55:46.265Z,25.90
2023-06-10T05:56:45.257Z,25.90
2023-06-10T05:57:46.323Z,25.92
2023-06-10T05:58:46.506Z,25.92
2023-06-10T05:59:46.481Z,25.89
2023-06-10T06:00:46.612Z,25.93
2023-06-10T06:01:46.562Z,25.90
2023-06-10T06:02:47.208Z,25.93
2023-06-10T06:03:46.797Z,25.92
2023-06-10T06:04:45.791Z,25.93
2023-06-10T06:05:46.784Z,25.90
2023-06-10T06:06:45.827Z,25.92
2023-06-10T06:07:45.787Z,25.94
2023-06-10T06:08:46.871Z,25.96
2023-06-10T06:09:46.950Z,25.97
2023-06-10T06:10:47.042Z,25.96
2023-06-10T06:11:47.006Z,25.96
2023-06-10T06:12:47.081Z,25.96
2023-06-10T06:13:47.098Z,25.96
2023-06-10T06:14:47.146Z,25.99
2023-06-10T06:15:47.275Z,25.99
2023-06-10T06:16:47.189Z,25.97
2023-06-10T06:17:46.202Z,25.99
2023-06-10T06:18:47.213Z,26.00
2023-06-10T06:19:47.255Z,26.00
2023-06-10T06:20:46.273Z,26.01
2023-06-10T06:21:47.325Z,26.01
2023-06-10T06:22:47.336Z,26.03
2023-06-10T06:23:47.527Z,26.01
2023-06-10T06:24:46.558Z,26.04
2023-06-10T06:25:47.453Z,26.03
2023-06-10T06:26:47.514Z,26.04
2023-06-10T06:27:47.524Z,26.05
2023-06-10T06:28:47.554Z,26.04
2023-06-10T06:29:47.699Z,26.05
2023-06-10T06:30:47.671Z,26.05
2023-06-10T06:31:47.740Z,26.05
2023-06-10T06:32:47.908Z,26.08
2023-06-10T06:33:47.795Z,26.05
2023-06-10T06:34:47.784Z,26.07
2023-06-10T06:35:47.841Z,26.07
2023-06-10T06:36:46.886Z,26.07
2023-06-10T06:37:46.858Z,26.10
2023-06-10T06:38:47.874Z,26.10
2023-06-10T06:39:47.943Z,26.10
2023-06-10T06:40:46.947Z,26.10
2023-06-10T06:41:46.987Z,26.11
2023-06-10T06:42:48.038Z,26.11
2023-06-10T06:43:48.066Z,26.11
2023-06-10T06:44:48.080Z,26.13
2023-06-10T06:45:47.090Z,26.16
2023-06-10T06:46:48.128Z,26.13
2023-06-10T06:47:47.280Z,26.14
2023-06-10T06:48:48.382Z,26.13
2023-06-10T06:49:48.249Z,26.16
2023-06-10T06:50:48.300Z,26.17
2023-06-10T06:51:47.331Z,26.17
2023-06-10T06:52:47.358Z,26.16
2023-06-10T06:53:47.342Z,26.20
2023-06-10T06:54:48.351Z,26.19
2023-06-10T06:55:48.397Z,26.19
2023-06-10T06:56:48.450Z,26.19
2023-06-10T06:57:48.489Z,26.20
2023-06-10T06:58:48.457Z,26.20
2023-06-10T06:59:48.470Z,26.20
2023-06-10T07:00:48.525Z,26.19
2023-06-10T07:01:48.498Z,26.21
2023-06-10T07:02:48.543Z,26.23
2023-06-10T07:03:47.555Z,26.23
2023-06-10T07:04:47.605Z,26.24
2023-06-10T07:05:48.602Z,26.24
2023-06-10T07:06:48.634Z,26.23
2023-06-10T07:07:48.657Z,26.24
2023-06-10T07:08:47.654Z,26.24
2023-06-10T07:09:48.706Z,26.24
2023-06-10T07:10:48.697Z,26.26
2023-06-10T07:11:47.761Z,26.24
2023-06-10T07:12:48.708Z,26.27
2023-06-10T07:13:48.785Z,26.27
2023-06-10T07:14:48.802Z,26.27
2023-06-10T07:15:48.831Z,26.26
2023-06-10T07:16:48.850Z,26.27
2023-06-10T07:17:48.861Z,26.27
2023-06-10T07:18:48.867Z,26.30
2023-06-10T07:19:48.872Z,26.30
2023-06-10T07:20:47.890Z,26.34
2023-06-10T07:21:48.925Z,26.30
2023-06-10T07:22:48.982Z,26.30
2023-06-10T07:23:48.902Z,26.32
2023-06-10T07:24:48.895Z,26.31
2023-06-10T07:25:48.920Z,26.34
2023-06-10T07:26:47.986Z,26.32
2023-06-10T07:27:48.966Z,26.34
2023-06-10T07:28:48.918Z,26.35
2023-06-10T07:29:48.934Z,26.35
2023-06-10T07:30:49.026Z,26.37
2023-06-10T07:31:48.972Z,26.35
2023-06-10T07:32:49.040Z,26.37
2023-06-10T07:33:48.977Z,26.37
2023-06-10T07:34:49.042Z,26.38
2023-06-10T07:35:49.015Z,26.37
2023-06-10T07:36:49.038Z,26.37
2023-06-10T07:37:48.063Z,26.38
2023-06-10T07:38:48.032Z,26.39
2023-06-10T07:39:49.037Z,26.39
2023-06-10T07:40:49.049Z,26.41
2023-06-10T07:41:48.038Z,26.39
2023-06-10T07:42:49.005Z,26.41
2023-06-10T07:43:49.013Z,26.39
2023-06-10T07:44:49.010Z,26.41
2023-06-10T07:45:49.032Z,26.39
2023-06-10T07:46:49.134Z,26.45
2023-06-10T07:47:49.086Z,26.45
2023-06-10T07:48:48.006Z,26.44
2023-06-10T07:49:49.044Z,26.45
2023-06-10T07:50:49.114Z,26.45
2023-06-10T07:51:49.106Z,26.45
2023-06-10T07:52:49.070Z,26.47
2023-06-10T07:53:49.029Z,26.48
2023-06-10T07:54:48.023Z,26.47
2023-06-10T07:55:48.060Z,26.47
2023-06-10T07:56:49.000Z,26.48
2023-06-10T07:57:49.028Z,26.48
2023-06-10T07:58:49.009Z,26.47
2023-06-10T07:59:47.995Z,26.48
2023-06-10T08:00:49.018Z,26.48
2023-06-10T08:01:49.047Z,26.49
2023-06-10T08:02:49.132Z,26.49
2023-06-10T08:03:49.238Z,26.51
2023-06-10T08:04:49.130Z,26.49
2023-06-10T08:05:48.056Z,26.51
2023-06-10T08:06:49.028Z,26.52
2023-06-10T08:07:47.977Z,26.52
2023-06-10T08:08:49.035Z,26.54
2023-06-10T08:09:49.083Z,26.54
2023-06-10T08:10:49.019Z,26.52
2023-06-10T08:11:48.037Z,26.52
2023-06-10T08:12:48.020Z,26.54
2023-06-10T08:13:48.993Z,26.54
2023-06-10T08:14:49.003Z,26.55
2023-06-10T08:15:49.018Z,26.56
2023-06-10T08:16:49.057Z,26.58
2023-06-10T08:17:49.008Z,26.58
2023-06-10T08:18:48.001Z,26.56
2023-06-10T08:19:49.045Z,26.60
2023-06-10T08:20:48.034Z,26.59
2023-06-10T08:21:48.989Z,26.60
2023-06-10T08:22:48.990Z,26.60
2023-06-10T08:23:49.118Z,26.60
2023-06-10T08:24:49.592Z,26.62
2023-06-10T08:25:48.036Z,26.62
2023-06-10T08:26:49.061Z,26.65
2023-06-10T08:27:49.048Z,26.62
2023-06-10T08:28:49.080Z,26.63
2023-06-10T08:29:49.025Z,26.63
2023-06-10T08:30:49.032Z,26.65
2023-06-10T08:31:49.096Z,26.66
2023-06-10T08:32:48.123Z,26.66
2023-06-10T08:33:48.076Z,26.68
2023-06-10T08:34:48.100Z,26.65
2023-06-10T08:35:49.103Z,26.68
2023-06-10T08:36:48.138Z,26.66
2023-06-10T08:37:49.119Z,26.69
2023-06-10T08:38:48.137Z,26.69
2023-06-10T08:39:49.124Z,26.68
2023-06-10T08:40:49.116Z,26.69
2023-06-10T08:41:49.152Z,26.66
2023-06-10T08:42:49.161Z,26.68
2023-06-10T08:43:48.147Z,26.68
2023-06-10T08:44:48.167Z,26.66
2023-06-10T08:45:48.195Z,26.71
2023-06-10T08:46:49.240Z,26.68
2023-06-10T08:47:49.297Z,26.69
2023-06-10T08:48:48.309Z,26.69
2023-06-10T08:49:48.303Z,26.69
2023-06-10T08:50:49.321Z,26.69
2023-06-10T08:51:49.331Z,26.69
2023-06-10T08:52:49.337Z,26.71
2023-06-10T08:53:48.435Z,26.66
2023-06-10T08:54:49.393Z,26.68
2023-06-10T08:55:49.382Z,26.69
2023-06-10T08:56:49.421Z,26.71
2023-06-10T08:57:49.407Z,26.68
2023-06-10T08:58:49.473Z,26.71
2023-06-10T08:59:49.438Z,26.71
2023-06-10T09:00:48.427Z,26.69
2023-06-10T09:01:49.508Z,26.72
2023-06-10T09:02:49.476Z,26.72
2023-06-10T09:03:48.659Z,26.73
2023-06-10T09:04:48.515Z,26.72
2023-06-10T09:05:49.688Z,26.73
2023-06-10T09:06:48.604Z,26.75
2023-06-10T09:07:49.646Z,26.72
2023-06-10T09:08:49.647Z,26.73
2023-06-10T09:09:49.651Z,26.75
2023-06-10T09:10:48.626Z,26.73
2023-06-10T09:11:49.617Z,26.72
2023-06-10T09:12:48.602Z,26.72
2023-06-10T09:13:49.600Z,26.76
2023-06-10T09:14:48.579Z,26.73
2023-06-10T09:15:49.667Z,26.73
2023-06-10T09:16:49.613Z,26.78
2023-06-10T09:17:48.689Z,26.75
2023-06-10T09:18:49.565Z,26.78
2023-06-10T09:19:49.612Z,26.78
2023-06-10T09:20:49.609Z,26.76
2023-06-10T09:21:48.569Z,26.78
2023-06-10T09:22:49.593Z,26.75
2023-06-10T09:23:49.666Z,26.76
2023-06-10T09:24:49.626Z,26.75
2023-06-10T09:25:49.651Z,26.78
2023-06-10T09:26:49.681Z,26.78
2023-06-10T09:27:49.617Z,26.76
2023-06-10T09:28:49.655Z,26.78
2023-06-10T09:29:49.767Z,26.79
2023-06-10T09:30:49.645Z,26.78
2023-06-10T09:31:49.648Z,26.81
2023-06-10T09:32:49.696Z,26.79
2023-06-10T09:33:48.670Z,26.81
2023-06-10T09:34:48.641Z,26.79
2023-06-10T09:35:49.665Z,26.81
2023-06-10T09:36:49.645Z,26.79
2023-06-10T09:37:49.650Z,26.83
2023-06-10T09:38:49.704Z,26.86
2023-06-10T09:39:49.671Z,26.81
2023-06-10T09:40:49.673Z,26.82
2023-06-10T09:41:49.792Z,26.83
2023-06-10T09:42:49.710Z,26.82
2023-06-10T09:43:49.689Z,26.85
2023-06-10T09:44:48.709Z,26.83
2023-06-10T09:45:49.759Z,26.86
2023-06-10T09:46:49.768Z,26.86
2023-06-10T09:47:49.790Z,26.86
2023-06-10T09:48:49.780Z,26.85
2023-06-10T09:49:48.714Z,26.83
2023-06-10T09:50:49.804Z,26.85
2023-06-10T09:51:49.875Z,26.86
2023-06-10T09:52:49.773Z,26.86
2023-06-10T09:53:49.759Z,26.85
2023-06-10T09:54:49.809Z,26.86
2023-06-10T09:55:49.789Z,26.87
2023-06-10T09:56:49.814Z,26.87
2023-06-10T09:57:49.950Z,26.89
2023-06-10T09:58:48.918Z,26.87
2023-06-10T09:59:49.941Z,26.89
2023-06-10T10:00:49.969Z,26.86
2023-06-10T10:01:50.004Z,26.87
2023-06-10T10:02:50.070Z,26.89
2023-06-10T10:03:50.105Z,26.87
2023-06-10T10:04:49.179Z,26.89
2023-06-10T10:05:50.200Z,26.89
2023-06-10T10:06:50.189Z,26.87
2023-06-10T10:07:50.262Z,26.89
2023-06-10T10:08:50.337Z,26.89
2023-06-10T10:09:50.303Z,26.90
2023-06-10T10:10:50.344Z,26.90
2023-06-10T10:11:50.581Z,26.92
2023-06-10T10:12:50.455Z,26.93
2023-06-10T10:13:50.496Z,26.87
2023-06-10T10:14:50.527Z,26.92
2023-06-10T10:15:49.604Z,26.89
2023-06-10T10:16:49.693Z,26.90
2023-06-10T10:17:50.702Z,26.93
2023-06-10T10:18:50.698Z,26.93
2023-06-10T10:19:50.732Z,26.93
2023-06-10T10:20:50.766Z,26.92
2023-06-10T10:21:49.852Z,26.93
2023-06-10T10:22:50.861Z,26.94
2023-06-10T10:23:50.977Z,26.92
2023-06-10T10:24:51.031Z,26.92
2023-06-10T10:25:51.079Z,26.93
2023-06-10T10:26:51.121Z,26.93
2023-06-10T10:27:51.170Z,26.92
2023-06-10T10:28:50.206Z,26.92
2023-06-10T10:29:50.294Z,26.92
2023-06-10T10:30:51.344Z,26.93
2023-06-10T10:31:51.361Z,26.94
2023-06-10T10:32:50.521Z,26.94
2023-06-10T10:33:50.493Z,26.94
2023-06-10T10:34:51.505Z,26.94
2023-06-10T10:35:51.491Z,26.96
2023-06-10T10:36:51.551Z,26.93
2023-06-10T10:37:51.658Z,26.96
2023-06-10T10:38:52.996Z,26.97
2023-06-10T10:39:51.829Z,26.94
2023-06-10T10:40:51.869Z,26.96
2023-06-10T10:41:52.037Z,26.96
2023-06-10T10:42:50.960Z,26.97
2023-06-10T10:43:52.118Z,26.96
2023-06-10T10:44:51.035Z,26.99
2023-06-10T10:45:52.064Z,26.96
2023-06-10T10:46:52.212Z,26.93
2023-06-10T10:47:52.272Z,26.94
2023-06-10T10:48:52.228Z,26.96
2023-06-10T10:49:52.304Z,26.93
2023-06-10T10:50:52.365Z,26.96
2023-06-10T10:51:52.342Z,26.99
2023-06-10T10:52:52.386Z,26.97
2023-06-10T10:53:52.483Z,26.97
2023-06-10T10:54:52.475Z,26.97
2023-06-10T10:55:51.602Z,26.99
2023-06-10T10:56:52.631Z,26.99
2023-06-10T10:57:52.687Z,27.00
2023-06-10T10:58:51.738Z,27.00
2023-06-10T10:59:52.903Z,27.00
2023-06-10T11:00:52.909Z,27.00
2023-06-10T11:01:52.958Z,26.96
2023-06-10T11:02:52.244Z,26.97
2023-06-10T11:03:53.108Z,26.99
2023-06-10T11:04:52.217Z,27.01
2023-06-10T11:05:53.123Z,26.99
2023-06-10T11:06:53.226Z,27.00
2023-06-10T11:07:52.266Z,26.99
2023-06-10T11:08:53.285Z,26.97
2023-06-10T11:09:53.360Z,27.01
2023-06-10T11:10:53.398Z,27.01
2023-06-10T11:11:53.456Z,27.00
2023-06-10T11:12:53.528Z,27.03
2023-06-10T11:13:52.574Z,27.00
2023-06-10T11:14:53.611Z,27.00
2023-06-10T11:15:53.700Z,26.99
2023-06-10T11:16:53.788Z,27.01
2023-06-10T11:17:53.842Z,27.00
2023-06-10T11:18:53.852Z,27.01
2023-06-10T11:19:53.981Z,27.00
2023-06-10T11:20:53.048Z,27.01
2023-06-10T11:21:54.263Z,26.97
2023-06-10T11:22:54.155Z,27.03
2023-06-10T11:23:54.230Z,27.01
2023-06-10T11:24:54.410Z,27.06
2023-06-10T11:25:53.345Z,26.99
2023-06-10T11:26:54.412Z,27.01
2023-06-10T11:27:54.528Z,27.00
2023-06-10T11:28:54.610Z,27.01
2023-06-10T11:29:54.581Z,27.06
2023-06-10T11:30:54.626Z,27.01
2023-06-10T11:31:54.779Z,27.04
2023-06-10T11:32:54.028Z,27.03
2023-06-10T11:33:54.968Z,27.03
2023-06-10T11:34:54.860Z,27.04
2023-06-10T11:35:54.959Z,27.06
2023-06-10T11:36:55.034Z,27.03
2023-06-10T11:37:55.175Z,27.04
2023-06-10T11:38:55.119Z,27.03
2023-06-10T11:39:55.212Z,27.04
2023-06-10T11:40:54.278Z,27.04
2023-06-10T11:41:54.362Z,27.06
2023-06-10T11:42:55.439Z,27.06
2023-06-10T11:43:55.443Z,27.04
2023-06-10T11:44:55.529Z,27.03
2023-06-10T11:45:55.591Z,27.04
2023-06-10T11:46:55.677Z,27.03
2023-06-10T11:47:55.788Z,27.04
2023-06-10T11:48:55.776Z,27.09
2023-06-10T11:49:55.783Z,27.04
2023-06-10T11:50:55.879Z,27.07
2023-06-10T11:51:55.968Z,27.06
2023-06-10T11:52:55.016Z,27.07
2023-06-10T11:53:55.061Z,27.06
2023-06-10T11:54:56.102Z,27.07
2023-06-10T11:55:55.221Z,27.06
2023-06-10T11:56:56.395Z,27.06
2023-06-10T11:57:56.387Z,27.06
2023-06-10T11:58:56.404Z,27.07
2023-06-10T11:59:56.445Z,27.04
2023-06-10T12:00:56.503Z,27.06
2023-06-10T12:01:56.620Z,27.07
2023-06-10T12:02:55.793Z,27.06
2023-06-10T12:03:56.723Z,27.04
2023-06-10T12:04:56.814Z,27.04
2023-06-10T12:05:56.822Z,27.06
2023-06-10T12:06:56.903Z,27.07
2023-06-10T12:07:56.937Z,27.06
2023-06-10T12:09:04.637Z,27.06
2023-06-10T12:09:56.952Z,27.09
2023-06-10T12:10:56.933Z,27.07
2023-06-10T12:11:55.917Z,27.07
2023-06-10T12:12:55.957Z,27.07
2023-06-10T12:13:56.918Z,27.07
2023-06-10T12:14:56.255Z,27.09
2023-06-10T12:15:55.993Z,27.06
2023-06-10T12:16:56.947Z,27.04
2023-06-10T12:17:56.960Z,27.07
2023-06-10T12:18:56.906Z,27.04
2023-06-10T12:19:56.943Z,27.03
2023-06-10T12:20:56.936Z,27.06
2023-06-10T12:21:56.921Z,27.09
2023-06-10T12:22:56.954Z,27.09
2023-06-10T12:23:56.936Z,27.06
2023-06-10T12:24:56.921Z,27.07
2023-06-10T12:25:56.882Z,27.10
2023-06-10T12:26:56.863Z,27.07
2023-06-10T12:27:56.838Z,27.09
2023-06-10T12:28:56.829Z,27.07
2023-06-10T12:29:56.840Z,27.10
2023-06-10T12:30:56.811Z,27.09
2023-06-10T12:31:56.842Z,27.07
2023-06-10T12:32:56.901Z,27.07
2023-06-10T12:33:56.789Z,27.07
2023-06-10T12:34:56.838Z,27.07
2023-06-10T12:35:56.960Z,27.07
2023-06-10T12:36:56.982Z,27.09
2023-06-10T12:37:57.048Z,27.11
2023-06-10T12:38:57.065Z,27.09
2023-06-10T12:39:57.166Z,27.07
2023-06-10T12:40:57.219Z,27.07
2023-06-10T12:41:57.287Z,27.07
2023-06-10T12:42:56.323Z,27.07
2023-06-10T12:43:56.401Z,27.06
2023-06-10T12:44:57.460Z,27.06
2023-06-10T12:45:57.548Z,27.06
2023-06-10T12:46:56.580Z,27.09
2023-06-10T12:47:57.659Z,27.07
2023-06-10T12:48:57.729Z,27.04
2023-06-10T12:49:57.728Z,27.07
2023-06-10T12:50:57.805Z,27.04
2023-06-10T12:51:57.855Z,27.11
2023-06-10T12:52:57.992Z,27.07